createdAt,value
2022-11-06T00:00:31.709Z,14.47
2022-11-06T00:03:01.707Z,13.77
2022-11-06T00:05:48.604Z,18.87
2022-11-06T00:08:22.997Z,17.87
2022-11-06T00:10:53.496Z,18.20
2022-11-06T00:13:21.059Z,30.47
2022-11-06T00:15:48.481Z,25.40
2022-11-06T00:18:16.046Z,20.83
2022-11-06T00:20:43.751Z,22.20
2022-11-06T00:23:11.437Z,18.57
2022-11-06T00:25:41.890Z,13.40
2022-11-06T00:28:10.088Z,15.73
2022-11-06T00:30:38.080Z,18.03
2022-11-06T00:33:05.603Z,26.87
2022-11-06T00:35:33.351Z,20.57
2022-11-06T00:38:01.055Z,32.03
2022-11-06T00:40:28.502Z,19.97
2022-11-06T00:42:56.507Z,19.53
2022-11-06T00:45:25.600Z,17.30
2022-11-06T00:47:53.514Z,14.53
2022-11-06T00:50:21.172Z,15.93
2022-11-06T00:52:48.636Z,11.63
2022-11-06T00:55:16.265Z,12.60
2022-11-06T00:57:43.718Z,16.20
2022-11-06T01:00:12.270Z,20.63
2022-11-06T01:02:42.683Z,27.73
2022-11-06T01:05:10.358Z,38.43
2022-11-06T01:07:37.824Z,31.63
2022-11-06T01:10:06.715Z,28.93
2022-11-06T01:12:35.458Z,22.93
2022-11-06T01:15:03.089Z,22.13
2022-11-06T01:17:30.629Z,14.97
2022-11-06T01:19:58.209Z,17.70
2022-11-06T01:22:25.843Z,18.87
2022-11-06T01:24:53.447Z,19.70
2022-11-06T01:27:26.579Z,19.40
2022-11-06T01:29:55.133Z,16.63
2022-11-06T01:32:22.750Z,20.00
2022-11-06T01:34:51.924Z,16.93
2022-11-06T01:37:19.486Z,22.77
2022-11-06T01:39:48.583Z,18.20
2022-11-06T01:42:19.509Z,17.40
2022-11-06T01:45:08.295Z,19.07
2022-11-06T01:47:35.794Z,18.00
2022-11-06T01:50:12.909Z,15.03
2022-11-06T01:52:40.982Z,21.93
2022-11-06T01:55:21.665Z,17.87
2022-11-06T01:57:49.874Z,18.93
2022-11-06T02:00:17.995Z,16.07
2022-11-06T02:02:45.784Z,19.33
2022-11-06T02:05:13.522Z,20.10
2022-11-06T02:07:43.947Z,15.53
2022-11-06T02:10:12.013Z,18.87
2022-11-06T02:13:10.460Z,17.10
2022-11-06T02:16:04.781Z,18.47
2022-11-06T02:18:58.815Z,16.33
2022-11-06T02:21:51.976Z,13.80
2022-11-06T02:25:03.366Z,17.17
2022-11-06T02:27:32.044Z,11.87
2022-11-06T02:30:11.326Z,13.90
2022-11-06T02:33:00.201Z,13.33
2022-11-06T02:35:39.091Z,11.57
2022-11-06T02:38:17.485Z,33.90
2022-11-06T02:40:55.842Z,56.70
2022-11-06T02:43:37.345Z,42.33
2022-11-06T02:46:15.651Z,39.63
2022-11-06T02:48:49.261Z,31.90
2022-11-06T02:51:22.474Z,30.43
2022-11-06T02:53:50.874Z,21.87
2022-11-06T02:56:27.585Z,20.07
2022-11-06T02:59:07.108Z,15.93
2022-11-06T03:01:50.219Z,18.53
2022-11-06T03:04:32.609Z,14.97
2022-11-06T03:07:14.487Z,22.33
2022-11-06T03:09:42.469Z,14.30
2022-11-06T03:12:33.325Z,25.17
2022-11-06T03:15:24.585Z,34.43
2022-11-06T03:18:30.676Z,35.50
2022-11-06T03:21:14.111Z,36.70
2022-11-06T03:23:53.800Z,34.57
2022-11-06T03:26:32.548Z,32.83
2022-11-06T03:29:32.392Z,26.37
2022-11-06T03:32:15.983Z,24.00
2022-11-06T03:34:54.883Z,22.67
2022-11-06T03:37:34.051Z,22.60
2022-11-06T03:40:08.659Z,22.90
2022-11-06T03:42:39.214Z,18.70
2022-11-06T03:45:15.653Z,22.60
2022-11-06T03:47:49.003Z,18.67
2022-11-06T03:50:34.508Z,18.50
2022-11-06T03:53:10.130Z,21.87
2022-11-06T03:55:50.535Z,24.90
2022-11-06T03:58:23.723Z,21.03
2022-11-06T04:00:54.773Z,18.33
2022-11-06T04:03:52.235Z,17.90
2022-11-06T04:06:37.818Z,15.60
2022-11-06T04:09:27.651Z,13.73
2022-11-06T04:12:17.782Z,16.40
2022-11-06T04:14:51.443Z,18.37
2022-11-06T04:17:20.901Z,18.40
2022-11-06T04:19:54.533Z,15.43
2022-11-06T04:22:55.928Z,20.97
2022-11-06T04:26:05.783Z,15.53
2022-11-06T04:28:42.367Z,15.70
2022-11-06T04:31:37.739Z,16.00
2022-11-06T04:34:09.738Z,19.67
2022-11-06T04:37:18.305Z,29.33
2022-11-06T04:40:00.963Z,28.70
2022-11-06T04:42:49.231Z,30.50
2022-11-06T04:45:29.539Z,28.73
2022-11-06T04:47:57.775Z,30.90
2022-11-06T04:50:27.800Z,28.10
2022-11-06T04:52:56.634Z,24.17
2022-11-06T04:55:24.279Z,28.40
2022-11-06T04:57:51.938Z,25.90
2022-11-06T05:00:25.214Z,32.10
2022-11-06T05:02:52.698Z,32.83
2022-11-06T05:05:20.148Z,30.73
2022-11-06T05:07:47.644Z,39.43
2022-11-06T05:10:15.143Z,42.73
2022-11-06T05:12:42.553Z,34.87
2022-11-06T05:15:10.416Z,37.83
2022-11-06T05:17:37.881Z,30.33
2022-11-06T05:20:06.597Z,36.00
2022-11-06T05:22:52.280Z,40.03
2022-11-06T05:25:22.806Z,54.03
2022-11-06T05:27:50.354Z,46.77
2022-11-06T05:30:18.520Z,48.73
2022-11-06T05:32:46.036Z,46.53
2022-11-06T05:35:14.598Z,37.90
2022-11-06T05:37:42.158Z,38.70
2022-11-06T05:40:10.531Z,29.27
2022-11-06T05:42:41.878Z,30.53
2022-11-06T05:45:10.993Z,25.47
2022-11-06T05:47:41.804Z,26.57
2022-11-06T05:50:10.995Z,20.33
2022-11-06T05:52:39.058Z,26.27
2022-11-06T05:55:13.193Z,26.20
2022-11-06T05:57:42.338Z,23.80
2022-11-06T06:00:11.549Z,21.60
2022-11-06T06:02:43.985Z,19.93
2022-11-06T06:05:11.749Z,23.87
2022-11-06T06:07:39.185Z,17.53
2022-11-06T06:10:07.733Z,18.90
2022-11-06T06:12:36.197Z,15.67
2022-11-06T06:15:03.798Z,16.47
2022-11-06T06:17:31.287Z,16.87
2022-11-06T06:19:58.999Z,15.90
2022-11-06T06:22:26.442Z,12.93
2022-11-06T06:24:54.144Z,11.80
2022-11-06T06:27:21.734Z,11.83
2022-11-06T06:29:49.183Z,20.17
2022-11-06T06:32:16.624Z,17.27
2022-11-06T06:34:44.171Z,14.57
2022-11-06T06:37:14.366Z,15.70
2022-11-06T06:39:43.958Z,12.97
2022-11-06T06:42:11.583Z,18.10
2022-11-06T06:44:39.159Z,29.90
2022-11-06T06:47:09.402Z,14.87
2022-11-06T06:49:38.157Z,18.83
2022-11-06T06:52:05.817Z,17.13
2022-11-06T06:54:33.286Z,14.80
2022-11-06T06:57:00.766Z,15.33
2022-11-06T06:59:31.803Z,15.20
2022-11-06T07:01:59.308Z,17.07
2022-11-06T07:04:27.053Z,14.50
2022-11-06T07:06:56.448Z,19.30
2022-11-06T07:09:24.260Z,20.53
2022-11-06T07:11:51.765Z,34.23
2022-11-06T07:14:19.240Z,23.90
2022-11-06T07:16:52.540Z,10.53
2022-11-06T07:19:22.320Z,12.00
2022-11-06T07:21:53.688Z,13.67
2022-11-06T07:24:23.995Z,13.47
2022-11-06T07:26:51.505Z,17.37
2022-11-06T07:29:18.900Z,14.70
2022-11-06T07:31:46.302Z,15.60
2022-11-06T07:34:13.938Z,14.23
2022-11-06T07:36:41.421Z,11.17
2022-11-06T07:39:09.042Z,17.30
2022-11-06T07:41:37.119Z,12.53
2022-11-06T07:44:04.918Z,12.73
2022-11-06T07:46:32.394Z,17.17
2022-11-06T07:48:59.946Z,19.70
2022-11-06T07:51:27.404Z,14.07
2022-11-06T07:53:55.001Z,12.93
2022-11-06T07:56:22.416Z,13.93
2022-11-06T07:58:51.224Z,12.87
2022-11-06T08:01:19.445Z,15.60
2022-11-06T08:03:47.409Z,10.97
2022-11-06T08:06:15.105Z,12.53
2022-11-06T08:08:42.573Z,14.50
2022-11-06T08:11:12.006Z,12.13
2022-11-06T08:13:39.908Z,17.27
2022-11-06T08:16:13.696Z,14.73
2022-11-06T08:18:42.005Z,15.13
2022-11-06T08:21:09.811Z,14.97
2022-11-06T08:23:37.726Z,20.47
2022-11-06T08:26:07.863Z,20.20
2022-11-06T08:28:36.384Z,15.10
2022-11-06T08:31:06.304Z,12.83
2022-11-06T08:33:35.938Z,14.10
2022-11-06T08:36:05.623Z,12.00
2022-11-06T08:38:33.507Z,12.37
2022-11-06T08:41:13.139Z,18.93
2022-11-06T08:43:41.754Z,13.13
2022-11-06T08:46:11.918Z,11.93
2022-11-06T08:48:39.673Z,10.80
2022-11-06T08:51:07.747Z,11.90
2022-11-06T08:53:35.544Z,14.57
2022-11-06T08:56:05.208Z,12.70
2022-11-06T08:58:33.008Z,9.33
2022-11-06T09:01:00.620Z,16.73
2022-11-06T09:03:28.377Z,45.80
2022-11-06T09:05:56.733Z,46.30
2022-11-06T09:08:24.637Z,42.27
2022-11-06T09:10:58.185Z,34.97
2022-11-06T09:13:29.136Z,41.30
2022-11-06T09:15:56.799Z,40.57
2022-11-06T09:18:24.934Z,51.57
2022-11-06T09:20:56.765Z,43.47
2022-11-06T09:23:25.388Z,47.50
2022-11-06T09:25:56.137Z,39.40
2022-11-06T09:28:24.033Z,40.17
2022-11-06T09:30:51.606Z,35.27
2022-11-06T09:33:19.693Z,40.23
2022-11-06T09:35:47.747Z,48.80
2022-11-06T09:38:15.939Z,38.07
2022-11-06T09:40:51.956Z,42.40
2022-11-06T09:44:05.544Z,40.43
2022-11-06T09:46:47.915Z,37.50
2022-11-06T09:49:37.979Z,36.53
2022-11-06T09:52:44.702Z,38.23
2022-11-06T09:55:29.687Z,36.77
2022-11-06T09:58:16.136Z,39.57
2022-11-06T10:00:44.646Z,40.90
2022-11-06T10:03:27.147Z,35.90
2022-11-06T10:05:55.023Z,38.63
2022-11-06T10:08:30.662Z,35.73
2022-11-06T10:11:05.802Z,33.97
2022-11-06T10:14:06.310Z,36.87
2022-11-06T10:16:48.382Z,40.27
2022-11-06T10:19:37.832Z,48.10
2022-11-06T10:22:42.514Z,36.47
2022-11-06T10:25:24.967Z,38.03
2022-11-06T10:28:57.097Z,38.70
2022-11-06T10:31:46.775Z,35.10
2022-11-06T10:34:24.310Z,31.10
2022-11-06T10:37:00.684Z,31.10
2022-11-06T10:39:34.504Z,33.37
2022-11-06T10:42:17.949Z,26.60
2022-11-06T10:45:00.933Z,28.27
2022-11-06T10:47:40.028Z,28.40
2022-11-06T10:50:16.028Z,27.70
2022-11-06T10:52:49.094Z,35.23
2022-11-06T10:55:47.707Z,32.77
2022-11-06T10:58:22.486Z,28.63
2022-11-06T11:00:52.556Z,36.93
2022-11-06T11:03:32.435Z,31.63
2022-11-06T11:06:01.793Z,35.53
2022-11-06T11:08:40.437Z,29.30
2022-11-06T11:11:20.102Z,28.37
2022-11-06T11:14:26.149Z,29.20
2022-11-06T11:16:54.207Z,24.57
2022-11-06T11:19:44.431Z,28.73
2022-11-06T11:22:20.725Z,33.43
2022-11-06T11:25:06.060Z,33.87
2022-11-06T11:27:47.736Z,33.53
2022-11-06T11:30:26.700Z,32.10
2022-11-06T11:32:56.035Z,27.60
2022-11-06T11:35:31.977Z,34.57
2022-11-06T11:38:13.689Z,27.43
2022-11-06T11:40:42.733Z,32.43
2022-11-06T11:43:29.903Z,27.03
2022-11-06T11:46:23.590Z,29.43
2022-11-06T11:48:58.577Z,24.43
2022-11-06T11:51:43.881Z,21.93
2022-11-06T11:54:14.583Z,26.07
2022-11-06T11:57:07.487Z,22.47
2022-11-06T11:59:57.788Z,19.37
2022-11-06T12:02:46.374Z,29.30
2022-11-06T12:05:38.861Z,23.60
2022-11-06T12:08:16.287Z,28.87
2022-11-06T12:10:45.116Z,25.53
2022-11-06T12:13:19.919Z,26.47
2022-11-06T12:15:59.437Z,25.70
2022-11-06T12:18:39.151Z,23.27
2022-11-06T12:21:28.135Z,27.57
2022-11-06T12:24:07.331Z,32.30
2022-11-06T12:27:01.161Z,26.83
2022-11-06T12:29:37.824Z,26.97
2022-11-06T12:32:21.644Z,23.07
2022-11-06T12:35:37.069Z,22.47
2022-11-06T12:38:38.469Z,25.80
2022-11-06T12:41:38.094Z,28.63
2022-11-06T12:44:12.886Z,26.30
2022-11-06T12:47:08.609Z,30.17
2022-11-06T12:49:53.829Z,28.83
2022-11-06T12:52:38.512Z,28.97
2022-11-06T12:55:42.693Z,28.90
2022-11-06T12:58:39.987Z,30.67
2022-11-06T13:01:23.110Z,30.37
2022-11-06T13:04:25.215Z,27.43
2022-11-06T13:07:19.861Z,34.00
2022-11-06T13:10:19.764Z,30.93
2022-11-06T13:13:15.936Z,43.23
2022-11-06T13:16:25.506Z,35.77
2022-11-06T13:19:31.477Z,31.40
2022-11-06T13:22:09.912Z,29.23
2022-11-06T13:25:06.303Z,40.83
2022-11-06T13:27:54.268Z,33.47
2022-11-06T13:30:27.134Z,33.67
2022-11-06T13:33:28.823Z,32.60
2022-11-06T13:35:59.140Z,33.50
2022-11-06T13:38:39.875Z,30.30
2022-11-06T13:41:17.848Z,37.37
2022-11-06T13:43:52.459Z,30.17
2022-11-06T13:47:06.035Z,28.03
2022-11-06T13:49:35.997Z,38.13
2022-11-06T13:52:14.761Z,35.73
2022-11-06T13:55:25.830Z,38.83
2022-11-06T13:58:52.408Z,36.27
2022-11-06T14:01:43.634Z,35.90
2022-11-06T14:04:57.152Z,35.73
2022-11-06T14:07:49.166Z,32.00
2022-11-06T14:10:23.772Z,38.53
2022-11-06T14:12:52.091Z,40.60
2022-11-06T14:15:39.899Z,40.37
2022-11-06T14:18:12.552Z,42.53
2022-11-06T14:20:40.716Z,49.97
2022-11-06T14:23:29.528Z,34.60
2022-11-06T14:26:38.450Z,33.97
2022-11-06T14:29:28.309Z,41.13
2022-11-06T14:32:21.412Z,36.77
2022-11-06T14:34:49.890Z,32.50
2022-11-06T14:37:43.100Z,36.53
2022-11-06T14:40:14.036Z,33.30
2022-11-06T14:42:46.215Z,36.87
2022-11-06T14:45:23.019Z,36.17
2022-11-06T14:47:56.565Z,34.67
2022-11-06T14:50:38.433Z,51.57
2022-11-06T14:53:21.995Z,46.53
2022-11-06T14:56:07.896Z,38.17
2022-11-06T14:58:39.677Z,36.63
2022-11-06T15:01:13.855Z,37.80
2022-11-06T15:04:36.404Z,37.50
2022-11-06T15:07:58.732Z,39.90
2022-11-06T15:10:44.932Z,40.73
2022-11-06T15:13:21.131Z,38.60
2022-11-06T15:15:57.866Z,34.00
2022-11-06T15:18:28.168Z,31.90
2022-11-06T15:21:03.554Z,37.90
2022-11-06T15:23:56.606Z,32.20
2022-11-06T15:26:50.730Z,34.53
2022-11-06T15:29:24.885Z,31.33
2022-11-06T15:32:03.791Z,34.67
2022-11-06T15:34:40.491Z,27.37
2022-11-06T15:37:21.882Z,30.47
2022-11-06T15:40:00.199Z,31.83
2022-11-06T15:42:35.177Z,36.67
2022-11-06T15:45:22.473Z,40.23
2022-11-06T15:48:01.366Z,40.60
2022-11-06T15:50:30.083Z,37.43
2022-11-06T15:53:17.628Z,37.00
2022-11-06T15:56:05.593Z,43.53
2022-11-06T15:58:38.030Z,35.20
2022-11-06T16:01:07.892Z,37.30
2022-11-06T16:03:54.719Z,38.77
2022-11-06T16:06:22.562Z,41.33
2022-11-06T16:08:51.423Z,39.03
2022-11-06T16:11:21.646Z,41.07
2022-11-06T16:13:49.981Z,36.20
2022-11-06T16:16:42.655Z,41.03
2022-11-06T16:19:30.740Z,41.70
2022-11-06T16:22:07.581Z,57.63
2022-11-06T16:24:49.648Z,58.27
2022-11-06T16:27:17.948Z,72.17
2022-11-06T16:29:52.808Z,68.37
2022-11-06T16:32:27.300Z,57.23
2022-11-06T16:34:56.240Z,53.20
2022-11-06T16:37:29.922Z,64.80
2022-11-06T16:39:59.552Z,72.27
2022-11-06T16:42:32.993Z,84.23
2022-11-06T16:45:20.755Z,82.13
2022-11-06T16:48:06.891Z,71.60
2022-11-06T16:50:54.909Z,63.90
2022-11-06T16:53:32.415Z,55.10
2022-11-06T16:56:09.322Z,45.30
2022-11-06T16:59:09.778Z,45.93
2022-11-06T17:01:47.008Z,48.83
2022-11-06T17:04:26.765Z,45.67
2022-11-06T17:06:54.915Z,70.63
2022-11-06T17:09:35.742Z,99.43
2022-11-06T17:12:10.460Z,77.23
2022-11-06T17:14:57.877Z,82.67
2022-11-06T17:17:27.217Z,78.90
2022-11-06T17:19:57.056Z,86.20
2022-11-06T17:22:26.346Z,74.70
2022-11-06T17:24:55.064Z,63.30
2022-11-06T17:27:26.920Z,64.33
2022-11-06T17:29:55.785Z,58.13
2022-11-06T17:32:24.781Z,65.77
2022-11-06T17:34:53.177Z,61.77
2022-11-06T17:37:29.783Z,60.73
2022-11-06T17:39:57.327Z,59.87
2022-11-06T17:42:24.820Z,58.63
2022-11-06T17:44:52.289Z,55.67
2022-11-06T17:47:42.669Z,55.77
2022-11-06T17:50:11.095Z,51.10
2022-11-06T17:52:39.029Z,52.37
2022-11-06T17:55:06.990Z,55.53
2022-11-06T17:57:35.819Z,60.30
2022-11-06T18:00:04.084Z,39.50
2022-11-06T18:02:59.671Z,40.63
2022-11-06T18:05:30.354Z,38.60
2022-11-06T18:07:57.927Z,42.60
2022-11-06T18:10:30.427Z,45.27
2022-11-06T18:12:59.469Z,38.30
2022-11-06T18:15:28.319Z,41.27
2022-11-06T18:17:55.872Z,39.27
2022-11-06T18:20:24.970Z,44.00
2022-11-06T18:22:53.718Z,40.03
2022-11-06T18:25:21.264Z,36.33
2022-11-06T18:27:48.721Z,44.67
2022-11-06T18:30:17.427Z,42.13
2022-11-06T18:32:46.120Z,45.40
2022-11-06T18:35:14.204Z,49.53
2022-11-06T18:37:41.681Z,52.83
2022-11-06T18:40:12.801Z,50.13
2022-11-06T18:42:41.906Z,46.17
2022-11-06T18:45:11.011Z,48.90
2022-11-06T18:47:39.035Z,51.30
2022-11-06T18:50:07.631Z,51.90
2022-11-06T18:52:56.486Z,51.50
2022-11-06T18:55:25.122Z,49.70
2022-11-06T18:57:53.025Z,53.57
2022-11-06T19:00:24.495Z,47.80
2022-11-06T19:02:53.443Z,53.47
2022-11-06T19:05:26.298Z,63.50
2022-11-06T19:08:07.823Z,65.87
2022-11-06T19:10:40.659Z,60.53
2022-11-06T19:13:08.252Z,69.53
2022-11-06T19:15:39.935Z,60.17
2022-11-06T19:18:12.458Z,69.60
2022-11-06T19:20:43.964Z,73.93
2022-11-06T19:23:15.685Z,60.57
2022-11-06T19:25:50.869Z,71.37
2022-11-06T19:28:35.619Z,66.30
2022-11-06T19:31:04.692Z,68.30
2022-11-06T19:33:32.683Z,61.80
2022-11-06T19:36:01.891Z,76.90
2022-11-06T19:38:32.337Z,76.93
2022-11-06T19:41:02.652Z,70.53
2022-11-06T19:43:39.521Z,67.23
2022-11-06T19:46:11.231Z,62.93
2022-11-06T19:48:41.095Z,62.80
2022-11-06T19:51:14.035Z,65.80
2022-11-06T19:53:44.430Z,61.43
2022-11-06T19:56:17.615Z,73.57
2022-11-06T19:58:45.519Z,57.83
2022-11-06T20:01:14.011Z,73.00
2022-11-06T20:03:42.738Z,48.13
2022-11-06T20:06:11.024Z,60.60
2022-11-06T20:08:43.532Z,53.33
2022-11-06T20:11:16.576Z,44.43
2022-11-06T20:13:46.333Z,54.33
2022-11-06T20:16:24.786Z,50.10
2022-11-06T20:18:58.051Z,53.27
2022-11-06T20:21:30.013Z,49.73
2022-11-06T20:23:57.958Z,44.83
2022-11-06T20:26:26.305Z,38.70
2022-11-06T20:29:04.141Z,43.97
2022-11-06T20:31:55.791Z,47.20
2022-11-06T20:34:24.720Z,49.57
2022-11-06T20:36:56.444Z,42.77
2022-11-06T20:39:23.998Z,44.70
2022-11-06T20:41:52.715Z,50.07
2022-11-06T20:44:21.236Z,45.43
2022-11-06T20:46:54.106Z,50.20
2022-11-06T20:49:21.782Z,50.80
2022-11-06T20:52:13.352Z,42.67
2022-11-06T20:54:46.666Z,44.60
2022-11-06T20:57:18.475Z,44.33
2022-11-06T20:59:49.483Z,47.17
2022-11-06T21:02:17.810Z,43.70
2022-11-06T21:04:49.494Z,36.70
2022-11-06T21:07:18.730Z,35.80
2022-11-06T21:09:49.444Z,36.40
2022-11-06T21:12:18.194Z,39.20
2022-11-06T21:14:45.595Z,40.60
2022-11-06T21:17:14.134Z,39.23
2022-11-06T21:19:41.618Z,40.90
2022-11-06T21:22:09.088Z,36.33
2022-11-06T21:24:38.159Z,34.47
2022-11-06T21:27:06.176Z,43.10
2022-11-06T21:29:33.779Z,36.23
2022-11-06T21:32:01.753Z,37.50
2022-11-06T21:34:53.361Z,42.47
2022-11-06T21:37:32.860Z,35.97
2022-11-06T21:40:00.865Z,34.70
2022-11-06T21:42:28.340Z,38.67
2022-11-06T21:44:55.831Z,34.13
2022-11-06T21:47:23.340Z,31.60
2022-11-06T21:49:54.013Z,36.77
2022-11-06T21:52:41.486Z,32.77
2022-11-06T21:55:29.629Z,30.83
2022-11-06T21:57:57.485Z,30.03
2022-11-06T22:00:24.987Z,33.80
2022-11-06T22:02:52.515Z,39.33
2022-11-06T22:05:19.991Z,35.30
2022-11-06T22:07:47.475Z,28.30
2022-11-06T22:10:15.594Z,37.53
2022-11-06T22:12:44.587Z,29.93
2022-11-06T22:15:12.154Z,29.27
2022-11-06T22:17:39.783Z,32.93
2022-11-06T22:20:08.320Z,28.10
2022-11-06T22:22:35.742Z,31.47
2022-11-06T22:25:03.745Z,31.70
2022-11-06T22:27:31.323Z,28.90
2022-11-06T22:29:58.783Z,30.37
2022-11-06T22:32:29.274Z,26.40
2022-11-06T22:34:56.730Z,26.37
2022-11-06T22:37:24.195Z,28.07
2022-11-06T22:39:51.922Z,27.60
2022-11-06T22:42:19.392Z,28.20
2022-11-06T22:44:46.897Z,27.27
2022-11-06T22:47:14.420Z,24.37
2022-11-06T22:49:41.923Z,30.10
2022-11-06T22:52:09.357Z,23.50
2022-11-06T22:54:36.965Z,20.77
2022-11-06T22:57:06.911Z,19.83
2022-11-06T22:59:34.561Z,28.23
2022-11-06T23:02:02.098Z,20.50
2022-11-06T23:04:29.607Z,15.23
2022-11-06T23:06:57.054Z,16.20
2022-11-06T23:09:24.633Z,17.20
2022-11-06T23:11:52.142Z,20.00
2022-11-06T23:14:19.602Z,16.13
2022-11-06T23:17:01.007Z,21.83
2022-11-06T23:19:31.019Z,17.40
2022-11-06T23:22:17.741Z,26.03
2022-11-06T23:24:45.585Z,29.10
2022-11-06T23:27:13.282Z,27.93
2022-11-06T23:29:40.941Z,29.07
2022-11-06T23:32:08.466Z,27.50
2022-11-06T23:34:35.937Z,26.30
2022-11-06T23:37:03.536Z,30.03
2022-11-06T23:39:31.023Z,34.50
2022-11-06T23:41:58.468Z,30.87
2022-11-06T23:44:44.691Z,28.37
2022-11-06T23:47:12.144Z,27.77
2022-11-06T23:49:39.636Z,27.87
2022-11-06T23:52:07.063Z,26.27
2022-11-06T23:54:34.579Z,27.90
2022-11-06T23:57:02.067Z,32.70
2022-11-06T23:59:29.489Z,26.23
